sensor_id;sensor_type;location;lat;lon;timestamp;P1;durP1;ratioP1;P2;durP2;ratioP2
39612;SDS011;25303;48.896;13.342;2022-12-13T00:01:41;7.15;;;2.90;;
39612;SDS011;25303;48.896;13.342;2022-12-13T00:04:25;7.43;;;2.97;;
39612;SDS011;25303;48.896;13.342;2022-12-13T00:07:08;7.43;;;2.47;;
39612;SDS011;25303;48.896;13.342;2022-12-13T00:09:51;6.80;;;2.58;;
39612;SDS011;25303;48.896;13.342;2022-12-13T00:12:37;5.72;;;2.35;;
39612;SDS011;25303;48.896;13.342;2022-12-13T00:15:20;5.68;;;2.47;;
39612;SDS011;25303;48.896;13.342;2022-12-13T00:18:03;6.30;;;2.28;;
39612;SDS011;25303;48.896;13.342;2022-12-13T00:20:46;9.35;;;3.00;;
39612;SDS011;25303;48.896;13.342;2022-12-13T00:23:28;8.52;;;3.00;;
39612;SDS011;25303;48.896;13.342;2022-12-13T00:26:12;11.00;;;3.42;;
39612;SDS011;25303;48.896;13.342;2022-12-13T00:28:58;10.55;;;3.42;;
39612;SDS011;25303;48.896;13.342;2022-12-13T00:31:42;9.02;;;3.33;;
39612;SDS011;25303;48.896;13.342;2022-12-13T00:34:40;9.07;;;2.78;;
39612;SDS011;25303;48.896;13.342;2022-12-13T00:37:22;7.63;;;2.83;;
39612;SDS011;25303;48.896;13.342;2022-12-13T00:40:06;6.15;;;2.58;;
39612;SDS011;25303;48.896;13.342;2022-12-13T00:42:50;11.57;;;3.20;;
39612;SDS011;25303;48.896;13.342;2022-12-13T00:45:34;9.98;;;3.40;;
39612;SDS011;25303;48.896;13.342;2022-12-13T00:48:18;9.35;;;2.90;;
39612;SDS011;25303;48.896;13.342;2022-12-13T00:51:04;9.70;;;3.22;;
39612;SDS011;25303;48.896;13.342;2022-12-13T00:53:48;7.60;;;3.13;;
39612;SDS011;25303;48.896;13.342;2022-12-13T00:56:31;9.35;;;2.83;;
39612;SDS011;25303;48.896;13.342;2022-12-13T00:59:15;10.23;;;3.25;;
39612;SDS011;25303;48.896;13.342;2022-12-13T01:01:59;9.93;;;3.28;;
39612;SDS011;25303;48.896;13.342;2022-12-13T01:04:42;11.32;;;3.40;;
39612;SDS011;25303;48.896;13.342;2022-12-13T01:07:25;10.23;;;3.73;;
39612;SDS011;25303;48.896;13.342;2022-12-13T01:10:08;8.47;;;3.23;;
39612;SDS011;25303;48.896;13.342;2022-12-13T01:12:53;7.18;;;2.80;;
39612;SDS011;25303;48.896;13.342;2022-12-13T01:15:38;11.18;;;5.38;;
39612;SDS011;25303;48.896;13.342;2022-12-13T01:18:24;9.70;;;3.33;;
39612;SDS011;25303;48.896;13.342;2022-12-13T01:21:08;7.53;;;2.88;;
39612;SDS011;25303;48.896;13.342;2022-12-13T01:23:52;8.93;;;3.00;;
39612;SDS011;25303;48.896;13.342;2022-12-13T01:26:37;7.70;;;3.05;;
39612;SDS011;25303;48.896;13.342;2022-12-13T01:29:20;8.65;;;3.28;;
39612;SDS011;25303;48.896;13.342;2022-12-13T01:32:06;8.32;;;3.28;;
39612;SDS011;25303;48.896;13.342;2022-12-13T01:34:50;8.85;;;3.30;;
39612;SDS011;25303;48.896;13.342;2022-12-13T01:37:33;9.45;;;3.60;;
39612;SDS011;25303;48.896;13.342;2022-12-13T01:40:18;9.07;;;3.50;;
39612;SDS011;25303;48.896;13.342;2022-12-13T01:43:07;9.73;;;3.72;;
39612;SDS011;25303;48.896;13.342;2022-12-13T01:45:55;12.73;;;3.90;;
39612;SDS011;25303;48.896;13.342;2022-12-13T01:48:39;10.38;;;4.00;;
39612;SDS011;25303;48.896;13.342;2022-12-13T01:51:28;8.50;;;3.38;;
39612;SDS011;25303;48.896;13.342;2022-12-13T01:54:16;11.38;;;4.53;;
39612;SDS011;25303;48.896;13.342;2022-12-13T01:57:05;12.63;;;4.75;;
39612;SDS011;25303;48.896;13.342;2022-12-13T01:59:50;11.30;;;4.50;;
39612;SDS011;25303;48.896;13.342;2022-12-13T02:02:35;11.88;;;4.72;;
39612;SDS011;25303;48.896;13.342;2022-12-13T02:05:20;11.73;;;4.35;;
39612;SDS011;25303;48.896;13.342;2022-12-13T02:08:10;13.40;;;4.20;;
39612;SDS011;25303;48.896;13.342;2022-12-13T02:10:56;12.27;;;4.43;;
39612;SDS011;25303;48.896;13.342;2022-12-13T02:13:39;11.77;;;4.25;;
39612;SDS011;25303;48.896;13.342;2022-12-13T02:16:26;13.65;;;3.95;;
39612;SDS011;25303;48.896;13.342;2022-12-13T02:22:53;7.47;;;2.88;;
39612;SDS011;25303;48.896;13.342;2022-12-13T02:26:05;11.95;;;3.65;;
39612;SDS011;25303;48.896;13.342;2022-12-13T02:29:07;8.43;;;3.25;;
39612;SDS011;25303;48.896;13.342;2022-12-13T02:32:14;7.07;;;2.97;;
39612;SDS011;25303;48.896;13.342;2022-12-13T02:35:04;9.82;;;2.80;;
39612;SDS011;25303;48.896;13.342;2022-12-13T02:37:54;4.13;;;1.95;;
39612;SDS011;25303;48.896;13.342;2022-12-13T02:40:48;7.32;;;2.50;;
39612;SDS011;25303;48.896;13.342;2022-12-13T02:43:43;5.95;;;2.30;;
39612;SDS011;25303;48.896;13.342;2022-12-13T02:46:30;6.57;;;2.15;;
39612;SDS011;25303;48.896;13.342;2022-12-13T02:49:18;5.28;;;2.17;;
39612;SDS011;25303;48.896;13.342;2022-12-13T02:52:04;5.25;;;2.30;;
39612;SDS011;25303;48.896;13.342;2022-12-13T02:54:53;5.30;;;2.42;;
39612;SDS011;25303;48.896;13.342;2022-12-13T02:57:37;5.97;;;2.45;;
39612;SDS011;25303;48.896;13.342;2022-12-13T03:00:21;8.55;;;2.63;;
39612;SDS011;25303;48.896;13.342;2022-12-13T03:03:11;6.63;;;2.20;;
39612;SDS011;25303;48.896;13.342;2022-12-13T03:06:07;6.50;;;2.42;;
39612;SDS011;25303;48.896;13.342;2022-12-13T03:09:17;4.88;;;2.10;;
39612;SDS011;25303;48.896;13.342;2022-12-13T03:12:11;4.47;;;1.75;;
39612;SDS011;25303;48.896;13.342;2022-12-13T03:15:19;5.47;;;1.70;;
39612;SDS011;25303;48.896;13.342;2022-12-13T03:18:08;4.28;;;1.67;;
39612;SDS011;25303;48.896;13.342;2022-12-13T03:20:58;4.05;;;1.80;;
39612;SDS011;25303;48.896;13.342;2022-12-13T03:23:44;4.22;;;1.60;;
39612;SDS011;25303;48.896;13.342;2022-12-13T03:26:27;5.30;;;1.50;;
39612;SDS011;25303;48.896;13.342;2022-12-13T03:29:10;4.47;;;2.05;;
39612;SDS011;25303;48.896;13.342;2022-12-13T03:31:53;3.20;;;1.23;;
39612;SDS011;25303;48.896;13.342;2022-12-13T03:34:36;1.92;;;0.85;;
39612;SDS011;25303;48.896;13.342;2022-12-13T03:37:26;3.75;;;1.30;;
39612;SDS011;25303;48.896;13.342;2022-12-13T03:40:11;3.15;;;1.13;;
39612;SDS011;25303;48.896;13.342;2022-12-13T03:42:54;2.85;;;1.20;;
39612;SDS011;25303;48.896;13.342;2022-12-13T03:45:37;3.10;;;1.02;;
39612;SDS011;25303;48.896;13.342;2022-12-13T03:48:20;1.40;;;0.68;;
39612;SDS011;25303;48.896;13.342;2022-12-13T03:51:04;2.00;;;0.90;;
39612;SDS011;25303;48.896;13.342;2022-12-13T03:53:47;2.75;;;1.02;;
39612;SDS011;25303;48.896;13.342;2022-12-13T03:56:32;2.78;;;1.20;;
39612;SDS011;25303;48.896;13.342;2022-12-13T03:59:14;3.33;;;1.30;;
39612;SDS011;25303;48.896;13.342;2022-12-13T04:01:57;4.45;;;1.58;;
39612;SDS011;25303;48.896;13.342;2022-12-13T04:04:40;5.30;;;1.58;;
39612;SDS011;25303;48.896;13.342;2022-12-13T04:07:23;4.35;;;1.55;;
39612;SDS011;25303;48.896;13.342;2022-12-13T04:10:14;4.13;;;1.85;;
39612;SDS011;25303;48.896;13.342;2022-12-13T04:13:08;3.92;;;1.30;;
39612;SDS011;25303;48.896;13.342;2022-12-13T04:16:08;3.53;;;1.33;;
39612;SDS011;25303;48.896;13.342;2022-12-13T04:18:52;3.35;;;1.10;;
39612;SDS011;25303;48.896;13.342;2022-12-13T04:21:35;2.72;;;1.20;;
39612;SDS011;25303;48.896;13.342;2022-12-13T04:24:18;2.45;;;1.05;;
39612;SDS011;25303;48.896;13.342;2022-12-13T04:27:11;3.40;;;1.10;;
39612;SDS011;25303;48.896;13.342;2022-12-13T04:29:55;2.20;;;1.00;;
39612;SDS011;25303;48.896;13.342;2022-12-13T04:32:38;3.92;;;1.23;;
39612;SDS011;25303;48.896;13.342;2022-12-13T04:35:21;3.22;;;1.30;;
39612;SDS011;25303;48.896;13.342;2022-12-13T04:38:04;1.80;;;0.90;;
39612;SDS011;25303;48.896;13.342;2022-12-13T04:40:47;3.75;;;1.25;;
39612;SDS011;25303;48.896;13.342;2022-12-13T04:43:30;2.70;;;0.80;;
39612;SDS011;25303;48.896;13.342;2022-12-13T04:46:15;4.32;;;1.30;;
39612;SDS011;25303;48.896;13.342;2022-12-13T04:48:57;3.88;;;1.55;;
39612;SDS011;25303;48.896;13.342;2022-12-13T04:51:40;3.90;;;1.20;;
39612;SDS011;25303;48.896;13.342;2022-12-13T04:54:28;3.47;;;1.30;;
39612;SDS011;25303;48.896;13.342;2022-12-13T04:57:17;2.13;;;0.95;;
39612;SDS011;25303;48.896;13.342;2022-12-13T05:00:00;2.10;;;0.70;;
39612;SDS011;25303;48.896;13.342;2022-12-13T05:02:44;2.47;;;0.90;;
39612;SDS011;25303;48.896;13.342;2022-12-13T05:05:27;2.20;;;1.10;;
39612;SDS011;25303;48.896;13.342;2022-12-13T05:08:10;3.35;;;1.20;;
39612;SDS011;25303;48.896;13.342;2022-12-13T05:10:53;3.83;;;1.40;;
39612;SDS011;25303;48.896;13.342;2022-12-13T05:13:36;2.90;;;1.20;;
39612;SDS011;25303;48.896;13.342;2022-12-13T05:16:20;2.75;;;0.80;;
39612;SDS011;25303;48.896;13.342;2022-12-13T05:19:06;2.38;;;1.10;;
39612;SDS011;25303;48.896;13.342;2022-12-13T05:21:50;2.92;;;1.15;;
39612;SDS011;25303;48.896;13.342;2022-12-13T05:24:32;2.58;;;1.20;;
39612;SDS011;25303;48.896;13.342;2022-12-13T05:27:15;3.58;;;1.50;;
39612;SDS011;25303;48.896;13.342;2022-12-13T05:30:06;2.38;;;1.00;;
39612;SDS011;25303;48.896;13.342;2022-12-13T05:32:50;2.88;;;1.15;;
39612;SDS011;25303;48.896;13.342;2022-12-13T05:35:34;2.45;;;1.02;;
39612;SDS011;25303;48.896;13.342;2022-12-13T05:38:17;4.68;;;1.33;;
39612;SDS011;25303;48.896;13.342;2022-12-13T05:41:00;2.00;;;1.00;;
39612;SDS011;25303;48.896;13.342;2022-12-13T05:43:43;2.45;;;1.00;;
39612;SDS011;25303;48.896;13.342;2022-12-13T05:46:26;3.47;;;1.20;;
39612;SDS011;25303;48.896;13.342;2022-12-13T05:49:09;2.20;;;1.00;;
39612;SDS011;25303;48.896;13.342;2022-12-13T05:51:53;1.88;;;0.82;;
39612;SDS011;25303;48.896;13.342;2022-12-13T05:54:36;3.15;;;1.00;;
39612;SDS011;25303;48.896;13.342;2022-12-13T05:57:23;3.22;;;1.20;;
39612;SDS011;25303;48.896;13.342;2022-12-13T06:00:07;1.45;;;0.82;;
39612;SDS011;25303;48.896;13.342;2022-12-13T06:03:11;2.03;;;0.93;;
39612;SDS011;25303;48.896;13.342;2022-12-13T06:05:54;2.57;;;1.00;;
39612;SDS011;25303;48.896;13.342;2022-12-13T06:08:38;2.42;;;1.02;;
39612;SDS011;25303;48.896;13.342;2022-12-13T06:11:22;2.95;;;0.77;;
39612;SDS011;25303;48.896;13.342;2022-12-13T06:14:13;2.05;;;0.50;;
39612;SDS011;25303;48.896;13.342;2022-12-13T06:17:03;0.68;;;0.40;;
39612;SDS011;25303;48.896;13.342;2022-12-13T06:19:46;1.42;;;0.70;;
39612;SDS011;25303;48.896;13.342;2022-12-13T06:22:29;1.42;;;0.60;;
39612;SDS011;25303;48.896;13.342;2022-12-13T06:25:14;1.13;;;0.40;;
39612;SDS011;25303;48.896;13.342;2022-12-13T06:28:12;0.73;;;0.40;;
39612;SDS011;25303;48.896;13.342;2022-12-13T06:30:57;0.85;;;0.60;;
39612;SDS011;25303;48.896;13.342;2022-12-13T06:33:41;1.05;;;0.63;;
39612;SDS011;25303;48.896;13.342;2022-12-13T06:36:24;1.38;;;0.65;;
39612;SDS011;25303;48.896;13.342;2022-12-13T06:39:07;1.25;;;0.50;;
39612;SDS011;25303;48.896;13.342;2022-12-13T06:41:51;1.02;;;0.50;;
39612;SDS011;25303;48.896;13.342;2022-12-13T06:44:34;0.90;;;0.30;;
39612;SDS011;25303;48.896;13.342;2022-12-13T06:47:17;1.00;;;0.50;;
39612;SDS011;25303;48.896;13.342;2022-12-13T06:50:12;6.45;;;3.42;;
39612;SDS011;25303;48.896;13.342;2022-12-13T06:52:56;3.90;;;1.70;;
39612;SDS011;25303;48.896;13.342;2022-12-13T06:55:38;1.80;;;0.90;;
39612;SDS011;25303;48.896;13.342;2022-12-13T06:58:23;1.40;;;0.77;;
39612;SDS011;25303;48.896;13.342;2022-12-13T07:01:06;0.93;;;0.70;;
39612;SDS011;25303;48.896;13.342;2022-12-13T07:04:04;1.90;;;1.10;;
39612;SDS011;25303;48.896;13.342;2022-12-13T07:09:51;2.38;;;1.15;;
39612;SDS011;25303;48.896;13.342;2022-12-13T07:12:35;3.23;;;1.03;;
39612;SDS011;25303;48.896;13.342;2022-12-13T07:15:19;2.25;;;1.08;;
39612;SDS011;25303;48.896;13.342;2022-12-13T07:18:02;1.33;;;0.70;;
39612;SDS011;25303;48.896;13.342;2022-12-13T07:20:45;1.10;;;0.50;;
39612;SDS011;25303;48.896;13.342;2022-12-13T07:23:28;0.65;;;0.35;;
39612;SDS011;25303;48.896;13.342;2022-12-13T07:26:11;1.38;;;0.77;;
39612;SDS011;25303;48.896;13.342;2022-12-13T07:28:54;1.75;;;0.50;;
39612;SDS011;25303;48.896;13.342;2022-12-13T07:31:39;1.10;;;0.60;;
39612;SDS011;25303;48.896;13.342;2022-12-13T07:34:22;1.10;;;0.50;;
39612;SDS011;25303;48.896;13.342;2022-12-13T07:37:05;0.95;;;0.50;;
39612;SDS011;25303;48.896;13.342;2022-12-13T07:40:08;1.73;;;0.75;;
39612;SDS011;25303;48.896;13.342;2022-12-13T07:42:52;1.48;;;0.60;;
39612;SDS011;25303;48.896;13.342;2022-12-13T07:45:38;1.10;;;0.57;;
39612;SDS011;25303;48.896;13.342;2022-12-13T07:48:22;0.93;;;0.60;;
39612;SDS011;25303;48.896;13.342;2022-12-13T07:51:06;4.53;;;1.05;;
39612;SDS011;25303;48.896;13.342;2022-12-13T07:53:51;2.00;;;1.00;;
39612;SDS011;25303;48.896;13.342;2022-12-13T07:56:34;1.80;;;0.80;;
39612;SDS011;25303;48.896;13.342;2022-12-13T07:59:17;1.77;;;0.77;;
39612;SDS011;25303;48.896;13.342;2022-12-13T08:02:09;3.22;;;1.10;;
39612;SDS011;25303;48.896;13.342;2022-12-13T08:04:56;2.20;;;0.93;;
39612;SDS011;25303;48.896;13.342;2022-12-13T08:07:59;2.65;;;1.08;;
39612;SDS011;25303;48.896;13.342;2022-12-13T08:10:42;2.17;;;1.10;;
39612;SDS011;25303;48.896;13.342;2022-12-13T08:13:25;6.97;;;2.30;;
39612;SDS011;25303;48.896;13.342;2022-12-13T08:16:09;10.23;;;4.18;;
39612;SDS011;25303;48.896;13.342;2022-12-13T08:19:09;8.50;;;4.22;;
39612;SDS011;25303;48.896;13.342;2022-12-13T08:21:53;3.58;;;1.80;;
39612;SDS011;25303;48.896;13.342;2022-12-13T08:24:42;4.53;;;1.67;;
39612;SDS011;25303;48.896;13.342;2022-12-13T08:27:25;5.90;;;2.45;;
39612;SDS011;25303;48.896;13.342;2022-12-13T08:30:08;4.40;;;2.00;;
39612;SDS011;25303;48.896;13.342;2022-12-13T08:32:52;3.47;;;1.50;;
39612;SDS011;25303;48.896;13.342;2022-12-13T08:38:22;3.05;;;1.30;;
39612;SDS011;25303;48.896;13.342;2022-12-13T08:41:05;3.63;;;1.50;;
39612;SDS011;25303;48.896;13.342;2022-12-13T08:43:49;3.13;;;1.20;;
39612;SDS011;25303;48.896;13.342;2022-12-13T08:46:32;7.70;;;2.88;;
39612;SDS011;25303;48.896;13.342;2022-12-13T08:49:15;4.05;;;1.85;;
39612;SDS011;25303;48.896;13.342;2022-12-13T08:51:58;5.13;;;2.33;;
39612;SDS011;25303;48.896;13.342;2022-12-13T08:54:42;4.55;;;1.90;;
39612;SDS011;25303;48.896;13.342;2022-12-13T08:57:25;4.35;;;1.77;;
39612;SDS011;25303;48.896;13.342;2022-12-13T09:00:09;4.45;;;1.67;;
39612;SDS011;25303;48.896;13.342;2022-12-13T09:02:55;4.93;;;1.90;;
39612;SDS011;25303;48.896;13.342;2022-12-13T09:08:22;4.15;;;1.90;;
39612;SDS011;25303;48.896;13.342;2022-12-13T09:11:07;3.10;;;1.50;;
39612;SDS011;25303;48.896;13.342;2022-12-13T09:14:11;4.20;;;1.73;;
39612;SDS011;25303;48.896;13.342;2022-12-13T09:16:54;5.95;;;1.80;;
39612;SDS011;25303;48.896;13.342;2022-12-13T09:19:43;5.47;;;1.83;;
39612;SDS011;25303;48.896;13.342;2022-12-13T09:22:26;2.55;;;1.35;;
39612;SDS011;25303;48.896;13.342;2022-12-13T09:25:14;2.97;;;1.30;;
39612;SDS011;25303;48.896;13.342;2022-12-13T09:28:06;2.38;;;1.00;;
39612;SDS011;25303;48.896;13.342;2022-12-13T09:30:50;33.40;;;9.18;;
39612;SDS011;25303;48.896;13.342;2022-12-13T09:33:33;27.25;;;9.07;;
39612;SDS011;25303;48.896;13.342;2022-12-13T09:36:22;18.75;;;5.90;;
39612;SDS011;25303;48.896;13.342;2022-12-13T09:39:05;10.32;;;3.53;;
39612;SDS011;25303;48.896;13.342;2022-12-13T09:41:48;5.60;;;2.30;;
39612;SDS011;25303;48.896;13.342;2022-12-13T09:44:45;4.97;;;1.80;;
39612;SDS011;25303;48.896;13.342;2022-12-13T09:47:44;4.28;;;1.30;;
39612;SDS011;25303;48.896;13.342;2022-12-13T09:50:30;2.03;;;1.00;;
39612;SDS011;25303;48.896;13.342;2022-12-13T09:53:20;3.00;;;1.10;;
39612;SDS011;25303;48.896;13.342;2022-12-13T09:56:03;1.98;;;0.80;;
39612;SDS011;25303;48.896;13.342;2022-12-13T09:58:52;14.75;;;4.53;;
39612;SDS011;25303;48.896;13.342;2022-12-13T10:01:38;16.45;;;5.18;;
39612;SDS011;25303;48.896;13.342;2022-12-13T10:07:04;6.53;;;2.60;;
39612;SDS011;25303;48.896;13.342;2022-12-13T10:09:57;5.03;;;2.30;;
39612;SDS011;25303;48.896;13.342;2022-12-13T10:12:42;3.00;;;1.50;;
39612;SDS011;25303;48.896;13.342;2022-12-13T10:15:28;3.20;;;1.58;;
39612;SDS011;25303;48.896;13.342;2022-12-13T10:18:23;3.95;;;1.40;;
39612;SDS011;25303;48.896;13.342;2022-12-13T10:21:14;3.45;;;1.60;;
39612;SDS011;25303;48.896;13.342;2022-12-13T10:24:04;4.32;;;1.65;;
39612;SDS011;25303;48.896;13.342;2022-12-13T10:27:12;3.50;;;1.45;;
39612;SDS011;25303;48.896;13.342;2022-12-13T10:29:58;6.20;;;1.80;;
39612;SDS011;25303;48.896;13.342;2022-12-13T10:32:48;6.95;;;2.00;;
39612;SDS011;25303;48.896;13.342;2022-12-13T10:35:38;7.25;;;2.10;;
39612;SDS011;25303;48.896;13.342;2022-12-13T10:38:25;4.28;;;1.60;;
39612;SDS011;25303;48.896;13.342;2022-12-13T10:41:29;5.97;;;1.90;;
39612;SDS011;25303;48.896;13.342;2022-12-13T10:44:15;3.72;;;1.65;;
39612;SDS011;25303;48.896;13.342;2022-12-13T10:47:11;4.25;;;1.35;;
39612;SDS011;25303;48.896;13.342;2022-12-13T10:49:57;2.55;;;1.10;;
39612;SDS011;25303;48.896;13.342;2022-12-13T10:52:45;3.05;;;1.20;;
39612;SDS011;25303;48.896;13.342;2022-12-13T10:55:29;3.05;;;1.30;;
39612;SDS011;25303;48.896;13.342;2022-12-13T10:58:17;2.33;;;1.10;;
39612;SDS011;25303;48.896;13.342;2022-12-13T11:01:13;2.35;;;1.10;;
39612;SDS011;25303;48.896;13.342;2022-12-13T11:04:03;1.50;;;0.88;;
39612;SDS011;25303;48.896;13.342;2022-12-13T11:06:47;1.77;;;0.70;;
39612;SDS011;25303;48.896;13.342;2022-12-13T11:09:32;1.60;;;0.82;;
39612;SDS011;25303;48.896;13.342;2022-12-13T11:12:20;1.60;;;0.85;;
39612;SDS011;25303;48.896;13.342;2022-12-13T11:15:05;1.70;;;0.82;;
39612;SDS011;25303;48.896;13.342;2022-12-13T11:18:04;1.90;;;0.80;;
39612;SDS011;25303;48.896;13.342;2022-12-13T11:20:52;3.55;;;0.60;;
39612;SDS011;25303;48.896;13.342;2022-12-13T11:23:38;0.80;;;0.52;;
39612;SDS011;25303;48.896;13.342;2022-12-13T11:26:26;3.15;;;0.65;;
39612;SDS011;25303;48.896;13.342;2022-12-13T11:29:19;1.00;;;0.50;;
39612;SDS011;25303;48.896;13.342;2022-12-13T11:32:19;0.93;;;0.47;;
39612;SDS011;25303;48.896;13.342;2022-12-13T11:35:12;1.38;;;0.70;;
39612;SDS011;25303;48.896;13.342;2022-12-13T11:38:04;1.52;;;0.65;;
39612;SDS011;25303;48.896;13.342;2022-12-13T11:40:56;1.52;;;0.50;;
39612;SDS011;25303;48.896;13.342;2022-12-13T11:43:47;1.08;;;0.52;;
39612;SDS011;25303;48.896;13.342;2022-12-13T11:46:34;1.08;;;0.50;;
39612;SDS011;25303;48.896;13.342;2022-12-13T11:49:26;0.80;;;0.50;;
39612;SDS011;25303;48.896;13.342;2022-12-13T11:55:04;0.90;;;0.40;;
39612;SDS011;25303;48.896;13.342;2022-12-13T11:57:57;0.70;;;0.50;;
39612;SDS011;25303;48.896;13.342;2022-12-13T12:00:48;1.42;;;0.70;;
39612;SDS011;25303;48.896;13.342;2022-12-13T12:03:38;2.60;;;0.70;;
39612;SDS011;25303;48.896;13.342;2022-12-13T12:06:26;1.63;;;0.70;;
39612;SDS011;25303;48.896;13.342;2022-12-13T12:09:14;0.88;;;0.40;;
39612;SDS011;25303;48.896;13.342;2022-12-13T12:12:01;1.52;;;0.60;;
39612;SDS011;25303;48.896;13.342;2022-12-13T12:14:48;0.95;;;0.45;;
39612;SDS011;25303;48.896;13.342;2022-12-13T12:17:36;1.00;;;0.47;;
39612;SDS011;25303;48.896;13.342;2022-12-13T12:20:25;1.25;;;0.50;;
39612;SDS011;25303;48.896;13.342;2022-12-13T12:23:21;1.20;;;0.45;;
39612;SDS011;25303;48.896;13.342;2022-12-13T12:26:22;2.17;;;0.82;;
39612;SDS011;25303;48.896;13.342;2022-12-13T12:29:17;2.03;;;0.80;;
39612;SDS011;25303;48.896;13.342;2022-12-13T12:32:11;2.85;;;0.90;;
39612;SDS011;25303;48.896;13.342;2022-12-13T12:35:07;2.08;;;0.50;;
39612;SDS011;25303;48.896;13.342;2022-12-13T12:38:01;1.58;;;0.70;;
39612;SDS011;25303;48.896;13.342;2022-12-13T12:41:03;0.50;;;0.50;;
39612;SDS011;25303;48.896;13.342;2022-12-13T12:44:02;1.55;;;0.70;;
39612;SDS011;25303;48.896;13.342;2022-12-13T12:46:56;1.15;;;0.60;;
39612;SDS011;25303;48.896;13.342;2022-12-13T12:50:21;2.83;;;1.40;;
39612;SDS011;25303;48.896;13.342;2022-12-13T12:53:23;3.22;;;1.30;;
39612;SDS011;25303;48.896;13.342;2022-12-13T12:56:18;2.55;;;1.00;;
39612;SDS011;25303;48.896;13.342;2022-12-13T12:59:11;1.70;;;0.70;;
39612;SDS011;25303;48.896;13.342;2022-12-13T13:02:00;1.90;;;0.90;;
39612;SDS011;25303;48.896;13.342;2022-12-13T13:04:51;2.00;;;0.90;;
39612;SDS011;25303;48.896;13.342;2022-12-13T13:07:41;1.73;;;0.80;;
39612;SDS011;25303;48.896;13.342;2022-12-13T13:10:32;1.38;;;0.60;;
39612;SDS011;25303;48.896;13.342;2022-12-13T13:13:31;1.73;;;0.77;;
39612;SDS011;25303;48.896;13.342;2022-12-13T13:16:28;1.75;;;0.60;;
39612;SDS011;25303;48.896;13.342;2022-12-13T13:22:30;0.50;;;0.30;;
39612;SDS011;25303;48.896;13.342;2022-12-13T13:25:28;0.77;;;0.35;;
39612;SDS011;25303;48.896;13.342;2022-12-13T13:28:14;0.85;;;0.28;;
39612;SDS011;25303;48.896;13.342;2022-12-13T13:31:02;0.50;;;0.30;;
39612;SDS011;25303;48.896;13.342;2022-12-13T13:33:47;0.60;;;0.40;;
39612;SDS011;25303;48.896;13.342;2022-12-13T13:36:44;1.08;;;0.40;;
39612;SDS011;25303;48.896;13.342;2022-12-13T13:39:37;0.65;;;0.40;;
39612;SDS011;25303;48.896;13.342;2022-12-13T13:42:48;1.83;;;0.80;;
39612;SDS011;25303;48.896;13.342;2022-12-13T13:45:55;1.80;;;0.80;;
39612;SDS011;25303;48.896;13.342;2022-12-13T13:48:44;1.38;;;0.70;;
39612;SDS011;25303;48.896;13.342;2022-12-13T13:51:48;1.75;;;0.60;;
39612;SDS011;25303;48.896;13.342;2022-12-13T13:55:10;1.35;;;0.50;;
39612;SDS011;25303;48.896;13.342;2022-12-13T13:58:20;1.15;;;0.50;;
39612;SDS011;25303;48.896;13.342;2022-12-13T14:01:28;1.25;;;0.60;;
39612;SDS011;25303;48.896;13.342;2022-12-13T14:08:06;4.18;;;1.42;;
39612;SDS011;25303;48.896;13.342;2022-12-13T14:11:12;3.47;;;1.10;;
39612;SDS011;25303;48.896;13.342;2022-12-13T14:17:44;3.70;;;1.08;;
39612;SDS011;25303;48.896;13.342;2022-12-13T14:20:54;4.47;;;1.00;;
39612;SDS011;25303;48.896;13.342;2022-12-13T14:26:36;10.18;;;2.13;;
39612;SDS011;25303;48.896;13.342;2022-12-13T14:29:32;10.95;;;2.65;;
39612;SDS011;25303;48.896;13.342;2022-12-13T14:32:21;6.30;;;2.08;;
39612;SDS011;25303;48.896;13.342;2022-12-13T14:35:19;14.00;;;3.63;;
39612;SDS011;25303;48.896;13.342;2022-12-13T14:38:16;15.88;;;3.97;;
39612;SDS011;25303;48.896;13.342;2022-12-13T14:41:03;5.38;;;1.65;;
39612;SDS011;25303;48.896;13.342;2022-12-13T14:43:48;3.67;;;1.17;;
39612;SDS011;25303;48.896;13.342;2022-12-13T14:46:31;2.40;;;0.90;;
39612;SDS011;25303;48.896;13.342;2022-12-13T14:49:16;1.77;;;0.82;;
39612;SDS011;25303;48.896;13.342;2022-12-13T14:52:01;1.80;;;0.90;;
39612;SDS011;25303;48.896;13.342;2022-12-13T14:54:47;1.77;;;0.90;;
39612;SDS011;25303;48.896;13.342;2022-12-13T14:57:38;1.55;;;0.75;;
39612;SDS011;25303;48.896;13.342;2022-12-13T15:00:33;2.20;;;0.93;;
39612;SDS011;25303;48.896;13.342;2022-12-13T15:03:21;1.60;;;0.70;;
39612;SDS011;25303;48.896;13.342;2022-12-13T15:06:07;1.33;;;0.77;;
39612;SDS011;25303;48.896;13.342;2022-12-13T15:08:50;1.83;;;0.80;;
39612;SDS011;25303;48.896;13.342;2022-12-13T15:11:34;2.42;;;0.77;;
39612;SDS011;25303;48.896;13.342;2022-12-13T15:14:18;1.23;;;0.55;;
39612;SDS011;25303;48.896;13.342;2022-12-13T15:17:03;0.88;;;0.50;;
39612;SDS011;25303;48.896;13.342;2022-12-13T15:19:48;1.42;;;0.70;;
39612;SDS011;25303;48.896;13.342;2022-12-13T15:22:35;1.65;;;0.70;;
39612;SDS011;25303;48.896;13.342;2022-12-13T15:25:21;3.47;;;1.17;;
39612;SDS011;25303;48.896;13.342;2022-12-13T15:28:04;3.75;;;1.50;;
39612;SDS011;25303;48.896;13.342;2022-12-13T15:33:32;2.85;;;1.30;;
39612;SDS011;25303;48.896;13.342;2022-12-13T15:36:24;4.43;;;1.70;;
39612;SDS011;25303;48.896;13.342;2022-12-13T15:39:10;7.68;;;2.33;;
39612;SDS011;25303;48.896;13.342;2022-12-13T15:41:58;6.47;;;2.03;;
39612;SDS011;25303;48.896;13.342;2022-12-13T15:44:43;4.72;;;2.15;;
39612;SDS011;25303;48.896;13.342;2022-12-13T15:47:28;3.95;;;1.70;;
39612;SDS011;25303;48.896;13.342;2022-12-13T15:53:18;2.97;;;1.30;;
39612;SDS011;25303;48.896;13.342;2022-12-13T15:56:27;2.58;;;1.38;;
39612;SDS011;25303;48.896;13.342;2022-12-13T15:59:22;2.92;;;1.20;;
39612;SDS011;25303;48.896;13.342;2022-12-13T16:02:09;4.38;;;1.50;;
39612;SDS011;25303;48.896;13.342;2022-12-13T16:05:04;3.08;;;1.38;;
39612;SDS011;25303;48.896;13.342;2022-12-13T16:07:48;3.22;;;1.20;;
39612;SDS011;25303;48.896;13.342;2022-12-13T16:10:36;5.63;;;2.00;;
39612;SDS011;25303;48.896;13.342;2022-12-13T16:13:23;5.45;;;2.00;;
39612;SDS011;25303;48.896;13.342;2022-12-13T16:16:19;3.90;;;1.50;;
39612;SDS011;25303;48.896;13.342;2022-12-13T16:19:12;2.88;;;1.10;;
39612;SDS011;25303;48.896;13.342;2022-12-13T16:21:58;2.30;;;1.00;;
39612;SDS011;25303;48.896;13.342;2022-12-13T16:24:41;2.70;;;1.10;;
39612;SDS011;25303;48.896;13.342;2022-12-13T16:27:24;2.03;;;0.82;;
39612;SDS011;25303;48.896;13.342;2022-12-13T16:30:13;4.43;;;1.10;;
39612;SDS011;25303;48.896;13.342;2022-12-13T16:33:04;3.55;;;0.90;;
39612;SDS011;25303;48.896;13.342;2022-12-13T16:36:08;1.95;;;0.88;;
39612;SDS011;25303;48.896;13.342;2022-12-13T16:39:04;2.00;;;0.80;;
39612;SDS011;25303;48.896;13.342;2022-12-13T16:41:51;2.13;;;0.75;;
39612;SDS011;25303;48.896;13.342;2022-12-13T16:44:35;2.13;;;0.80;;
39612;SDS011;25303;48.896;13.342;2022-12-13T16:47:20;2.75;;;1.05;;
39612;SDS011;25303;48.896;13.342;2022-12-13T16:50:21;1.40;;;0.80;;
39612;SDS011;25303;48.896;13.342;2022-12-13T16:53:04;3.00;;;1.10;;
39612;SDS011;25303;48.896;13.342;2022-12-13T16:55:51;2.50;;;0.90;;
39612;SDS011;25303;48.896;13.342;2022-12-13T16:58:39;1.88;;;0.70;;
39612;SDS011;25303;48.896;13.342;2022-12-13T17:01:30;3.10;;;1.08;;
39612;SDS011;25303;48.896;13.342;2022-12-13T17:04:15;1.25;;;0.80;;
39612;SDS011;25303;48.896;13.342;2022-12-13T17:07:01;1.80;;;0.73;;
39612;SDS011;25303;48.896;13.342;2022-12-13T17:09:44;1.52;;;0.70;;
39612;SDS011;25303;48.896;13.342;2022-12-13T17:12:27;1.75;;;0.80;;
39612;SDS011;25303;48.896;13.342;2022-12-13T17:15:11;2.00;;;0.77;;